This is the latest recevied weather packets stored in our database for station/object YO8PIC-4. If no packets are shown the sender has not sent any weather packets the latest 10 day(s).
| Time | Temp. | Humidity | Pressure | Rain* | Wind** | Luminosity | Snow |
|---|---|---|---|---|---|---|---|
| 1778085785 | 27.78° C | 46% | 1009.4 hPa | - | - | - | - |
| 1778085185 | 27.78° C | 45% | 1009.3 hPa | - | - | - | - |
| 1778084585 | 28.33° C | 45% | 1009.3 hPa | - | - | - | - |
| 1778083985 | 27.78° C | 45% | 1009.2 hPa | - | - | - | - |
| 1778083385 | 27.78° C | 45% | 1009.1 hPa | - | - | - | - |
| 1778082785 | 27.78° C | 44% | 1009.1 hPa | - | - | - | - |
| 1778082185 | 28.33° C | 44% | 1009.1 hPa | - | - | - | - |
| 1778081584 | 28.33° C | 44% | 1009 hPa | - | - | - | - |
| 1778080984 | 28.33° C | 43% | 1009.1 hPa | - | - | - | - |
| 1778080384 | 28.33° C | 42% | 1009.1 hPa | - | - | - | - |
| 1778079784 | 28.33° C | 43% | 1009.1 hPa | - | - | - | - |
| 1778079184 | 28.33° C | 43% | 1009.1 hPa | - | - | - | - |
| 1778078584 | 28.89° C | 43% | 1009.2 hPa | - | - | - | - |
| 1778077984 | 28.33° C | 43% | 1009.2 hPa | - | - | - | - |
| 1778077383 | 26.67° C | 46% | 1009.3 hPa | - | - | - | - |
| 1778076783 | 26.67° C | 46% | 1009.3 hPa | - | - | - | - |
| 1778076183 | 28.89° C | 41% | 1009.2 hPa | - | - | - | - |
| 1778075583 | 28.89° C | 42% | 1009.2 hPa | - | - | - | - |
| 1778074983 | 27.22° C | 44% | 1009.2 hPa | - | - | - | - |
| 1778074383 | 27.78° C | 43% | 1009.2 hPa | - | - | - | - |
| 1778073783 | 27.78° C | 43% | 1009.2 hPa | - | - | - | - |
| 1778073183 | 27.22° C | 44% | 1009.3 hPa | - | - | - | - |
| 1778072582 | 27.22° C | 45% | 1009.4 hPa | - | - | - | - |
| 1778071982 | 27.22° C | 44% | 1009.4 hPa | - | - | - | - |
| 1778071382 | 27.22° C | 44% | 1009.5 hPa | - | - | - | - |
* Rain since midnight (hover to see other rain measurements)
** Current wind speed in m/s (hover to see current wind gust speed)